Time;durP1;ratioP1;P1;durP2;ratioP2;P2;SDS_P1;SDS_P2;PMS_P1;PMS_P2;Temp;Humidity;BMP_temperature;BMP_pressure;BME280_temperature;BME280_humidity;BME280_pressure;Samples;Min_cycle;Max_cycle;Signal;HPM_P1;HPM_P2
2024/02/02 00:02:11;;;;;;;14.1;9.6;;;;;;;;;;;;;
2024/02/02 00:04:36;;;;;;;13.3;9.6;;;;;;;;;;;;;
2024/02/02 00:07:01;;;;;;;12.9;9.6;;;;;;;;;;;;;
2024/02/02 00:09:26;;;;;;;12.9;9.7;;;;;;;;;;;;;
2024/02/02 00:11:51;;;;;;;12.6;8.9;;;;;;;;;;;;;
2024/02/02 00:14:17;;;;;;;11.9;8.9;;;;;;;;;;;;;
2024/02/02 00:16:41;;;;;;;10.5;8.3;;;;;;;;;;;;;
2024/02/02 00:19:07;;;;;;;10.7;8;;;;;;;;;;;;;
2024/02/02 00:21:32;;;;;;;11.8;8.7;;;;;;;;;;;;;
2024/02/02 00:23:57;;;;;;;12.9;9;;;;;;;;;;;;;
2024/02/02 00:26:22;;;;;;;11.6;9.2;;;;;;;;;;;;;
2024/02/02 00:28:47;;;;;;;12;8.9;;;;;;;;;;;;;
2024/02/02 00:31:12;;;;;;;10.8;8.5;;;;;;;;;;;;;
2024/02/02 00:33:37;;;;;;;12.8;8.8;;;;;;;;;;;;;
2024/02/02 00:36:03;;;;;;;10;8.1;;;;;;;;;;;;;
2024/02/02 00:38:27;;;;;;;10;7.6;;;;;;;;;;;;;
2024/02/02 00:40:53;;;;;;;8.8;7.2;;;;;;;;;;;;;
2024/02/02 00:43:18;;;;;;;10.8;7.7;;;;;;;;;;;;;
2024/02/02 00:45:43;;;;;;;9.6;7.2;;;;;;;;;;;;;
2024/02/02 00:48:08;;;;;;;9.6;7.5;;;;;;;;;;;;;
2024/02/02 00:50:33;;;;;;;9;7.2;;;;;;;;;;;;;
2024/02/02 00:52:58;;;;;;;12;8.4;;;;;;;;;;;;;
2024/02/02 00:55:23;;;;;;;12.6;8.8;;;;;;;;;;;;;
2024/02/02 00:57:48;;;;;;;10.5;8.6;;;;;;;;;;;;;
2024/02/02 01:00:13;;;;;;;11.5;8.7;;;;;;;;;;;;;
2024/02/02 01:02:39;;;;;;;11.9;8.3;;;;;;;;;;;;;
2024/02/02 01:05:04;;;;;;;9.4;7.9;;;;;;;;;;;;;
2024/02/02 01:07:29;;;;;;;10.6;7.9;;;;;;;;;;;;;
2024/02/02 01:09:54;;;;;;;10.7;8.5;;;;;;;;;;;;;
2024/02/02 01:12:19;;;;;;;10.8;7.7;;;;;;;;;;;;;
2024/02/02 01:14:44;;;;;;;12.1;7.7;;;;;;;;;;;;;
2024/02/02 01:17:09;;;;;;;12;8.3;;;;;;;;;;;;;
2024/02/02 01:19:34;;;;;;;9;7.3;;;;;;;;;;;;;
2024/02/02 01:21:59;;;;;;;10;7.3;;;;;;;;;;;;;
2024/02/02 01:24:24;;;;;;;10.4;7.4;;;;;;;;;;;;;
2024/02/02 01:26:50;;;;;;;9.6;7.2;;;;;;;;;;;;;
2024/02/02 01:29:14;;;;;;;8.2;6.6;;;;;;;;;;;;;
2024/02/02 01:31:39;;;;;;;7.8;6.6;;;;;;;;;;;;;
2024/02/02 01:34:05;;;;;;;9.4;6.9;;;;;;;;;;;;;
2024/02/02 01:36:30;;;;;;;9;6.8;;;;;;;;;;;;;
2024/02/02 01:38:55;;;;;;;7.5;6.5;;;;;;;;;;;;;
2024/02/02 01:41:20;;;;;;;9;7;;;;;;;;;;;;;
2024/02/02 01:43:45;;;;;;;8.9;6.9;;;;;;;;;;;;;
2024/02/02 01:46:11;;;;;;;8.8;7.1;;;;;;;;;;;;;
2024/02/02 01:48:35;;;;;;;9.2;6.7;;;;;;;;;;;;;
2024/02/02 01:51:01;;;;;;;8;6.7;;;;;;;;;;;;;
2024/02/02 01:53:26;;;;;;;8.8;6.2;;;;;;;;;;;;;
2024/02/02 01:55:51;;;;;;;7.2;6.2;;;;;;;;;;;;;
2024/02/02 01:58:16;;;;;;;7.3;5.5;;;;;;;;;;;;;
2024/02/02 02:00:41;;;;;;;6.4;5.4;;;;;;;;;;;;;
2024/02/02 02:03:07;;;;;;;6.7;5.3;;;;;;;;;;;;;
2024/02/02 02:05:31;;;;;;;7.3;6;;;;;;;;;;;;;
2024/02/02 02:07:56;;;;;;;7.9;6.2;;;;;;;;;;;;;
2024/02/02 02:10:24;;;;;;;8.2;6.5;;;;;;;;;;;;;
2024/02/02 02:12:49;;;;;;;7.8;6.6;;;;;;;;;;;;;
2024/02/02 02:15:12;;;;;;;9.7;6.7;;;;;;;;;;;;;
2024/02/02 02:17:37;;;;;;;9.2;6.6;;;;;;;;;;;;;
2024/02/02 02:20:02;;;;;;;7.5;5.7;;;;;;;;;;;;;
2024/02/02 02:22:27;;;;;;;7.6;6.4;;;;;;;;;;;;;
2024/02/02 02:24:52;;;;;;;8;6.3;;;;;;;;;;;;;
2024/02/02 02:27:18;;;;;;;7.8;6.3;;;;;;;;;;;;;
2024/02/02 02:29:43;;;;;;;7.9;6.4;;;;;;;;;;;;;
2024/02/02 02:32:08;;;;;;;6.5;5.6;;;;;;;;;;;;;
2024/02/02 02:34:33;;;;;;;6.4;5.5;;;;;;;;;;;;;
2024/02/02 02:36:58;;;;;;;6.9;5.6;;;;;;;;;;;;;
2024/02/02 02:39:23;;;;;;;6.5;5;;;;;;;;;;;;;
2024/02/02 02:41:48;;;;;;;6;4.9;;;;;;;;;;;;;
2024/02/02 02:44:13;;;;;;;6.2;5.4;;;;;;;;;;;;;
2024/02/02 02:46:38;;;;;;;6;5.2;;;;;;;;;;;;;
2024/02/02 02:49:03;;;;;;;5.4;4.9;;;;;;;;;;;;;
2024/02/02 02:51:28;;;;;;;7.6;5.5;;;;;;;;;;;;;
2024/02/02 02:53:54;;;;;;;6.1;5.1;;;;;;;;;;;;;
2024/02/02 02:56:19;;;;;;;6.9;5.4;;;;;;;;;;;;;
2024/02/02 02:58:44;;;;;;;6.9;4.7;;;;;;;;;;;;;
2024/02/02 03:01:09;;;;;;;8.6;5.9;;;;;;;;;;;;;
2024/02/02 03:03:34;;;;;;;6;5;;;;;;;;;;;;;
2024/02/02 03:05:59;;;;;;;7.5;5;;;;;;;;;;;;;
2024/02/02 03:08:24;;;;;;;5.3;4.8;;;;;;;;;;;;;
2024/02/02 03:10:49;;;;;;;5.5;4.9;;;;;;;;;;;;;
2024/02/02 03:13:14;;;;;;;5.3;4.8;;;;;;;;;;;;;
2024/02/02 03:15:40;;;;;;;5.6;5.1;;;;;;;;;;;;;
2024/02/02 03:18:05;;;;;;;5.5;4.9;;;;;;;;;;;;;
2024/02/02 03:20:30;;;;;;;5.7;5.1;;;;;;;;;;;;;
2024/02/02 03:22:55;;;;;;;6.3;4.9;;;;;;;;;;;;;
2024/02/02 03:25:20;;;;;;;5.6;4.7;;;;;;;;;;;;;
2024/02/02 03:27:45;;;;;;;5.1;4.6;;;;;;;;;;;;;
2024/02/02 03:30:10;;;;;;;6.3;4.5;;;;;;;;;;;;;
2024/02/02 03:32:35;;;;;;;5.5;4.6;;;;;;;;;;;;;
2024/02/02 03:35:00;;;;;;;4.8;4.2;;;;;;;;;;;;;
2024/02/02 03:37:25;;;;;;;4.8;4.3;;;;;;;;;;;;;
2024/02/02 03:39:51;;;;;;;5.2;4.1;;;;;;;;;;;;;
2024/02/02 03:42:15;;;;;;;5.7;4.1;;;;;;;;;;;;;
2024/02/02 03:44:41;;;;;;;5;4.2;;;;;;;;;;;;;
2024/02/02 03:47:06;;;;;;;5;4.3;;;;;;;;;;;;;
2024/02/02 03:49:32;;;;;;;4.7;4;;;;;;;;;;;;;
2024/02/02 03:51:56;;;;;;;4.9;4.3;;;;;;;;;;;;;
2024/02/02 03:54:21;;;;;;;5.2;4.5;;;;;;;;;;;;;
2024/02/02 03:56:46;;;;;;;4.3;3.9;;;;;;;;;;;;;
2024/02/02 03:59:12;;;;;;;5.1;3.9;;;;;;;;;;;;;
2024/02/02 04:02:31;;;;;;;4.1;3.4;;;;;;;5.46;99.80371;950.5569;;;;
2024/02/02 04:04:56;;;;;;;3.6;3.2;;;;;;;5.41;99.71191;950.533;;;;
2024/02/02 04:07:21;;;;;;;5;3.5;;;;;;;5.35;99.50684;950.4305;;;;
2024/02/02 04:09:46;;;;;;;4.5;4.1;;;;;;;5.37;100;950.5245;;;;
2024/02/02 04:12:11;;;;;;;6.7;4.1;;;;;;;5.38;100;950.4447;;;;
2024/02/02 04:14:37;;;;;;;5.3;4.5;;;;;;;5.41;100;950.4221;;;;
2024/02/02 04:17:02;;;;;;;5.8;4.7;;;;;;;5.38;100;950.3787;;;;
2024/02/02 04:19:27;;;;;;;5.8;4.8;;;;;;;5.37;100;950.418;;;;
2024/02/02 04:21:52;;;;;;;6.7;4.7;;;;;;;5.36;100;950.4412;;;;
2024/02/02 04:24:18;;;;;;;6.3;4.7;;;;;;;5.35;100;950.4775;;;;
2024/02/02 04:26:42;;;;;;;6.4;4.8;;;;;;;5.36;100;950.5369;;;;
2024/02/02 04:29:08;;;;;;;6.4;4.6;;;;;;;5.44;99.99121;950.512;;;;
2024/02/02 04:31:33;;;;;;;8.9;6.2;;;;;;;5.43;99.66406;950.4752;;;;
2024/02/02 04:33:58;;;;;;;8.5;5.9;;;;;;;5.41;99.67773;950.4478;;;;
2024/02/02 04:36:23;;;;;;;4.3;3.8;;;;;;;5.37;99.69238;950.5128;;;;
2024/02/02 04:38:48;;;;;;;3.5;2.9;;;;;;;5.27;99.95117;950.4986;;;;
2024/02/02 04:41:13;;;;;;;4.1;3.2;;;;;;;5.26;99.55371;950.5508;;;;
2024/02/02 04:43:38;;;;;;;4.1;3.3;;;;;;;5.14;98.36523;950.5678;;;;
2024/02/02 04:46:04;;;;;;;3;2.7;;;;;;;5;98.39063;950.5825;;;;
2024/02/02 04:48:28;;;;;;;3.9;3;;;;;;;4.91;99.12207;950.5287;;;;
2024/02/02 04:50:54;;;;;;;4;3.6;;;;;;;4.97;99.23828;950.5991;;;;
2024/02/02 04:53:19;;;;;;;3.9;3.5;;;;;;;4.96;99.62891;950.5875;;;;
2024/02/02 04:55:44;;;;;;;4.4;3.6;;;;;;;4.95;100;950.4992;;;;
2024/02/02 04:58:09;;;;;;;5.5;3.9;;;;;;;4.98;100;950.4875;;;;
2024/02/02 05:00:35;;;;;;;5.3;4.3;;;;;;;5.03;99.96387;950.5417;;;;
2024/02/02 05:02:59;;;;;;;5.7;4.1;;;;;;;5.06;100;950.5494;;;;
2024/02/02 05:05:24;;;;;;;5.5;4.3;;;;;;;5.04;100;950.3882;;;;
2024/02/02 05:07:49;;;;;;;4.9;4.1;;;;;;;5.02;100;950.3825;;;;
2024/02/02 05:10:14;;;;;;;4.8;4.1;;;;;;;5.02;100;950.5499;;;;
2024/02/02 05:12:39;;;;;;;6.3;5.3;;;;;;;4.98;99.70313;950.655;;;;
2024/02/02 05:15:05;;;;;;;6.1;5;;;;;;;4.93;99.72363;950.6714;;;;
2024/02/02 05:17:29;;;;;;;5.6;4.2;;;;;;;4.94;99.95313;950.7683;;;;
2024/02/02 05:19:55;;;;;;;4.8;4.3;;;;;;;5.01;99.97949;950.7356;;;;
2024/02/02 05:22:20;;;;;;;8.2;6;;;;;;;5.02;100;950.7509;;;;
2024/02/02 05:24:45;;;;;;;11;9.6;;;;;;;5.09;99.84082;950.7719;;;;
2024/02/02 05:27:12;;;;;;;13;9.8;;;;;;;5.03;99.99707;950.83;;;;
2024/02/02 05:29:35;;;;;;;13.2;10;;;;;;;5.01;100;950.8053;;;;
2024/02/02 05:32:00;;;;;;;9.9;7.3;;;;;;;5.02;100;950.8678;;;;
2024/02/02 05:34:26;;;;;;;7.1;6.3;;;;;;;5.02;100;950.8964;;;;
2024/02/02 05:36:51;;;;;;;6.2;5.2;;;;;;;5.01;100;951.0002;;;;
2024/02/02 05:39:16;;;;;;;6.5;5.1;;;;;;;5.01;99.62109;951.0531;;;;
2024/02/02 05:41:41;;;;;;;6.9;5.4;;;;;;;5;100;951.1367;;;;
2024/02/02 05:44:07;;;;;;;5.5;4.9;;;;;;;4.99;100;951.1106;;;;
2024/02/02 05:46:31;;;;;;;6.9;5.5;;;;;;;5.03;100;951.1992;;;;
2024/02/02 05:48:56;;;;;;;15.4;11.8;;;;;;;5.04;100;951.2281;;;;
2024/02/02 05:51:21;;;;;;;18.4;12.4;;;;;;;5.08;100;951.3155;;;;
2024/02/02 05:53:46;;;;;;;16.8;12.7;;;;;;;5.11;100;951.3842;;;;
2024/02/02 05:56:12;;;;;;;19.1;12.9;;;;;;;5.09;100;951.3631;;;;
2024/02/02 05:58:37;;;;;;;12.4;9.5;;;;;;;5.02;100;951.4017;;;;
2024/02/02 06:01:02;;;;;;;7.7;5.7;;;;;;;5;100;951.412;;;;
2024/02/02 06:03:27;;;;;;;7.5;6.1;;;;;;;5;100;951.4294;;;;
2024/02/02 06:05:52;;;;;;;7.5;6.3;;;;;;;5;100;951.4256;;;;
2024/02/02 06:08:17;;;;;;;6.8;6.1;;;;;;;5;100;951.473;;;;
2024/02/02 06:10:42;;;;;;;6.4;5.7;;;;;;;5.12;100;951.4688;;;;
2024/02/02 06:13:07;;;;;;;6.1;5.3;;;;;;;5.12;100;951.4863;;;;
2024/02/02 06:15:33;;;;;;;5.9;4.9;;;;;;;5.1;100;951.5265;;;;
2024/02/02 06:17:58;;;;;;;7.5;4.8;;;;;;;5.11;100;951.5466;;;;
2024/02/02 06:20:23;;;;;;;7.4;5.7;;;;;;;5.13;100;951.5896;;;;
2024/02/02 06:22:48;;;;;;;8;6;;;;;;;5.11;100;951.6202;;;;
2024/02/02 06:25:13;;;;;;;9.3;6.2;;;;;;;5.06;100;951.5851;;;;
2024/02/02 06:27:38;;;;;;;10.5;7.1;;;;;;;5.06;100;951.6166;;;;
2024/02/02 06:30:04;;;;;;;8;6.5;;;;;;;5.11;100;951.6713;;;;
2024/02/02 06:32:28;;;;;;;9.4;7.4;;;;;;;5.09;100;951.5967;;;;
2024/02/02 06:34:55;;;;;;;12.1;8.2;;;;;;;5.09;100;951.6947;;;;
2024/02/02 06:37:19;;;;;;;12.3;8.6;;;;;;;5.1;100;951.7845;;;;
2024/02/02 06:39:46;;;;;;;11.4;8.6;;;;;;;5.11;100;951.8276;;;;
2024/02/02 06:42:09;;;;;;;12.1;8.6;;;;;;;5.11;100;951.8191;;;;
2024/02/02 06:44:35;;;;;;;9.6;7.5;;;;;;;5.18;100;951.7609;;;;
2024/02/02 06:46:59;;;;;;;11.2;7.6;;;;;;;5.15;100;951.7179;;;;
2024/02/02 06:49:24;;;;;;;9.8;7.4;;;;;;;5.15;100;951.6671;;;;
2024/02/02 06:51:49;;;;;;;11;7.6;;;;;;;5.19;100;951.7626;;;;
2024/02/02 06:54:14;;;;;;;10;7.7;;;;;;;5.18;100;951.6946;;;;
2024/02/02 06:56:41;;;;;;;11.8;8.2;;;;;;;5.2;100;951.7541;;;;
2024/02/02 06:59:05;;;;;;;15.7;10.3;;;;;;;5.22;100;951.7595;;;;
2024/02/02 07:01:30;;;;;;;14;10.1;;;;;;;5.23;100;951.7553;;;;
2024/02/02 07:03:55;;;;;;;14.1;10.1;;;;;;;5.25;100;951.7949;;;;
2024/02/02 07:06:20;;;;;;;13.7;10.3;;;;;;;5.24;100;951.7068;;;;
2024/02/02 07:08:46;;;;;;;16.1;11.1;;;;;;;5.28;100;951.7667;;;;
2024/02/02 07:11:10;;;;;;;14.2;11;;;;;;;5.34;100;951.7433;;;;
2024/02/02 07:13:35;;;;;;;20.5;13.2;;;;;;;5.39;100;951.7971;;;;
2024/02/02 07:16:01;;;;;;;15.8;11.4;;;;;;;5.41;100;951.8106;;;;
2024/02/02 07:18:26;;;;;;;15.2;11.5;;;;;;;5.39;100;951.8369;;;;
2024/02/02 07:20:51;;;;;;;15.5;10.6;;;;;;;5.4;100;951.8696;;;;
2024/02/02 07:23:16;;;;;;;12.1;10.1;;;;;;;5.45;100;951.77;;;;
2024/02/02 07:25:42;;;;;;;10.6;7.4;;;;;;;5.54;100;951.8233;;;;
2024/02/02 07:28:06;;;;;;;10.6;7.5;;;;;;;5.53;100;951.8608;;;;
2024/02/02 07:30:31;;;;;;;9.9;7.7;;;;;;;5.56;100;951.8741;;;;
2024/02/02 07:32:57;;;;;;;8.9;7.9;;;;;;;5.54;100;951.8967;;;;
2024/02/02 07:35:21;;;;;;;9.7;7.4;;;;;;;5.58;100;951.9116;;;;
2024/02/02 07:37:47;;;;;;;9.4;7;;;;;;;5.61;100;951.9119;;;;
2024/02/02 07:40:12;;;;;;;8.7;6.8;;;;;;;5.58;100;951.8989;;;;
2024/02/02 07:42:37;;;;;;;8.1;6.9;;;;;;;5.64;100;951.8666;;;;
2024/02/02 07:45:03;;;;;;;10;8.6;;;;;;;5.6;100;951.8826;;;;
2024/02/02 07:47:27;;;;;;;12.1;8.8;;;;;;;5.69;100;951.8123;;;;
2024/02/02 07:49:53;;;;;;;9.1;7.7;;;;;;;5.74;100;951.8723;;;;
2024/02/02 07:52:17;;;;;;;11;7.9;;;;;;;5.79;100;951.9406;;;;
2024/02/02 07:54:43;;;;;;;11.5;7.7;;;;;;;5.78;100;951.9451;;;;
2024/02/02 07:57:08;;;;;;;11.2;7;;;;;;;5.8;100;951.9519;;;;
2024/02/02 07:59:33;;;;;;;10;6.8;;;;;;;5.85;100;951.9641;;;;
2024/02/02 08:01:58;;;;;;;9.8;6.6;;;;;;;5.91;100;952.0115;;;;
2024/02/02 08:04:23;;;;;;;7.9;5.9;;;;;;;5.9;100;952.0264;;;;
2024/02/02 08:06:49;;;;;;;9;6.4;;;;;;;5.97;100;952.0145;;;;
2024/02/02 08:09:14;;;;;;;7.5;5.4;;;;;;;5.97;100;951.967;;;;
2024/02/02 08:11:39;;;;;;;7.2;5.6;;;;;;;5.99;100;952.1755;;;;
2024/02/02 08:14:04;;;;;;;6.8;5.7;;;;;;;6;100;952.1409;;;;
2024/02/02 08:16:29;;;;;;;9.6;7.1;;;;;;;6.02;100;952.282;;;;
2024/02/02 08:18:54;;;;;;;8.3;6.3;;;;;;;6.05;100;952.3072;;;;
2024/02/02 08:21:19;;;;;;;16.1;10.7;;;;;;;6.13;100;952.3434;;;;
2024/02/02 08:23:45;;;;;;;23;13.3;;;;;;;6.14;100;952.3467;;;;
2024/02/02 08:26:09;;;;;;;17;10.9;;;;;;;6.18;100;952.2933;;;;
2024/02/02 08:28:35;;;;;;;16.6;10.4;;;;;;;6.18;99.58789;952.3459;;;;
2024/02/02 08:31:00;;;;;;;8.5;5.2;;;;;;;6.21;99.05176;952.3106;;;;
2024/02/02 08:33:25;;;;;;;6.4;5.2;;;;;;;6.24;98.69824;952.3114;;;;
2024/02/02 08:35:50;;;;;;;5.3;4.5;;;;;;;6.29;99.40918;952.2497;;;;
2024/02/02 08:38:16;;;;;;;5.8;4.6;;;;;;;6.33;99.18262;952.183;;;;
2024/02/02 08:40:41;;;;;;;5.3;4.2;;;;;;;6.38;99.00098;952.2531;;;;
2024/02/02 08:43:05;;;;;;;6.5;5.9;;;;;;;6.39;99.13867;952.1422;;;;
2024/02/02 08:45:31;;;;;;;6.9;5.9;;;;;;;6.44;99.04883;952.1228;;;;
2024/02/02 08:47:55;;;;;;;8.9;6.7;;;;;;;6.44;98.73047;952.0561;;;;
2024/02/02 08:50:21;;;;;;;7;5.9;;;;;;;6.48;98.40137;952.008;;;;
2024/02/02 08:52:45;;;;;;;7.9;5.7;;;;;;;6.61;98.4668;951.9797;;;;
2024/02/02 08:55:11;;;;;;;7.6;5.2;;;;;;;6.57;98.60352;951.9365;;;;
2024/02/02 08:57:35;;;;;;;5.6;4.5;;;;;;;6.57;98.75;951.866;;;;
2024/02/02 09:00:07;;;;;;;6.5;4.9;;;;;;;6.62;98.31055;951.7888;;;;
2024/02/02 09:02:26;;;;;;;6.4;4.9;;;;;;;6.67;98.51465;951.7263;;;;
2024/02/02 09:04:51;;;;;;;7.2;5.3;;;;;;;6.77;98.33203;951.7139;;;;
2024/02/02 09:07:16;;;;;;;9.3;6.4;;;;;;;6.8;97.56836;951.6937;;;;
2024/02/02 09:09:41;;;;;;;5.7;4.7;;;;;;;6.8;97.05957;951.7532;;;;
2024/02/02 09:12:06;;;;;;;5.1;3.8;;;;;;;6.86;97.56055;951.7586;;;;
2024/02/02 09:14:32;;;;;;;3.3;2.6;;;;;;;6.88;97.25;951.6046;;;;
2024/02/02 09:16:57;;;;;;;3.9;3;;;;;;;6.92;96.88184;951.6172;;;;
2024/02/02 09:19:22;;;;;;;3.6;3.2;;;;;;;6.97;97.1543;951.723;;;;
2024/02/02 09:21:47;;;;;;;4.2;3.8;;;;;;;7.1;97.28516;951.8036;;;;
2024/02/02 09:24:12;;;;;;;6.1;5.3;;;;;;;7.13;96.33105;951.7061;;;;
2024/02/02 09:26:38;;;;;;;8.6;5;;;;;;;7.11;96.73633;951.6253;;;;
2024/02/02 09:29:02;;;;;;;5.6;4.6;;;;;;;7.11;95.79395;951.5966;;;;
2024/02/02 09:31:32;;;;;;;5.8;4.3;;;;;;;7.2;96.13184;951.5641;;;;
2024/02/02 09:33:52;;;;;;;4.7;3.5;;;;;;;7.25;96.31152;951.58;;;;
2024/02/02 09:36:18;;;;;;;4.9;3.1;;;;;;;7.27;96.83887;951.5634;;;;
2024/02/02 09:38:43;;;;;;;4.1;3.1;;;;;;;7.32;96.47559;951.6106;;;;
2024/02/02 09:41:13;;;;;;;15.2;8.5;;;;;;;7.33;95.8877;951.6373;;;;
2024/02/02 09:43:33;;;;;;;27.9;14.7;;;;;;;7.36;95.74902;951.6086;;;;
2024/02/02 09:46:00;;;;;;;23;12.4;;;;;;;7.43;95.30957;951.5856;;;;
2024/02/02 09:48:23;;;;;;;27.3;16.5;;;;;;;7.45;94.4082;951.6517;;;;
2024/02/02 09:50:49;;;;;;;14;8.7;;;;;;;7.42;94.72949;951.6778;;;;
2024/02/02 09:53:14;;;;;;;8.7;6.3;;;;;;;7.38;94.73242;951.6927;;;;
2024/02/02 09:55:39;;;;;;;13.4;8.5;;;;;;;7.45;94.05664;951.7584;;;;
2024/02/02 09:58:04;;;;;;;5.8;4.2;;;;;;;7.45;93.43359;951.7457;;;;
2024/02/02 10:00:29;;;;;;;5.8;4.1;;;;;;;7.5;94.20313;951.7639;;;;
2024/02/02 10:02:54;;;;;;;4.6;2.5;;;;;;;7.57;93.17578;951.884;;;;
2024/02/02 10:05:19;;;;;;;2.2;1.7;;;;;;;7.64;92.39551;951.9039;;;;
2024/02/02 10:07:44;;;;;;;2.6;1.3;;;;;;;7.68;92.88184;951.8836;;;;
2024/02/02 10:10:10;;;;;;;1.4;1.3;;;;;;;7.7;92.51074;951.897;;;;
2024/02/02 10:12:35;;;;;;;1.2;1.1;;;;;;;7.72;91.41504;951.9089;;;;
2024/02/02 10:15:00;;;;;;;0.9;0.9;;;;;;;7.83;91.38281;951.9939;;;;
2024/02/02 10:17:25;;;;;;;3;2.7;;;;;;;7.87;91.1748;951.9869;;;;
2024/02/02 10:19:50;;;;;;;1.2;1.1;;;;;;;7.92;89.56348;952.0344;;;;
2024/02/02 10:22:15;;;;;;;1.3;1.2;;;;;;;8.03;89.97266;951.9461;;;;
2024/02/02 10:24:40;;;;;;;1.3;1.2;;;;;;;8.01;90.87695;952.0754;;;;
2024/02/02 10:27:05;;;;;;;1.8;1.2;;;;;;;7.99;91.8584;951.9797;;;;
2024/02/02 10:29:30;;;;;;;1.6;1.4;;;;;;;7.93;90.98438;951.9194;;;;
2024/02/02 10:31:56;;;;;;;3.4;1.9;;;;;;;7.98;91.25684;951.832;;;;
2024/02/02 10:34:21;;;;;;;3;2;;;;;;;8.03;90.94824;951.8178;;;;
2024/02/02 10:36:46;;;;;;;2.8;2.3;;;;;;;8.05;89.80566;951.7978;;;;
2024/02/02 10:39:12;;;;;;;2.5;2;;;;;;;8.01;89.90039;951.7264;;;;
2024/02/02 10:41:36;;;;;;;2.6;2.2;;;;;;;8.04;90.40527;951.8237;;;;
2024/02/02 10:44:02;;;;;;;3.1;2.4;;;;;;;8.07;90.86523;951.7787;;;;
2024/02/02 10:46:26;;;;;;;3.6;2.5;;;;;;;8.14;91.28906;951.7523;;;;
2024/02/02 10:48:53;;;;;;;2.4;1.9;;;;;;;8.18;91.06055;951.6445;;;;
2024/02/02 10:51:26;;;;;;;2.9;2.2;;;;;;;8.19;91.58301;951.5821;;;;
2024/02/02 10:53:51;;;;;;;2.8;2.2;;;;;;;8.21;92.12207;951.4899;;;;
2024/02/02 10:56:16;;;;;;;2.8;2.5;;;;;;;8.27;91.56641;951.5444;;;;
2024/02/02 10:58:41;;;;;;;3.2;2.5;;;;;;;8.28;91.47852;951.5567;;;;
2024/02/02 11:01:07;;;;;;;2.7;2.2;;;;;;;8.29;91.22949;951.5227;;;;
2024/02/02 11:03:31;;;;;;;2.6;2.4;;;;;;;8.26;91.04199;951.5151;;;;
2024/02/02 11:05:56;;;;;;;3;2.5;;;;;;;8.31;91.46387;951.6183;;;;
2024/02/02 11:08:21;;;;;;;3.3;3;;;;;;;8.37;92.26855;951.562;;;;
2024/02/02 11:10:47;;;;;;;1.8;1.7;;;;;;;8.46;90.39258;951.4642;;;;
2024/02/02 11:13:12;;;;;;;1.7;1.6;;;;;;;8.35;89.00488;951.6144;;;;
2024/02/02 11:15:37;;;;;;;2;1.8;;;;;;;8.27;88.9873;951.5323;;;;
2024/02/02 11:18:02;;;;;;;2;1.8;;;;;;;8.35;89.41504;951.5535;;;;
2024/02/02 11:20:27;;;;;;;2.4;2.1;;;;;;;8.42;89.00781;951.6183;;;;
2024/02/02 11:22:54;;;;;;;2.9;1.9;;;;;;;8.45;89.22949;951.5208;;;;
2024/02/02 11:25:18;;;;;;;2.9;2.1;;;;;;;8.43;89.12402;951.6473;;;;
2024/02/02 11:27:45;;;;;;;2;1.8;;;;;;;8.54;88.1123;951.7148;;;;
2024/02/02 11:30:08;;;;;;;2.1;1.9;;;;;;;8.52;88.96094;951.7855;;;;
2024/02/02 11:32:33;;;;;;;2.4;1.8;;;;;;;8.44;90.35449;951.7842;;;;
2024/02/02 11:34:58;;;;;;;1.5;1.4;;;;;;;8.46;88.76563;951.8769;;;;
2024/02/02 11:37:23;;;;;;;1.1;1;;;;;;;8.5;81.80859;951.7842;;;;
2024/02/02 11:39:50;;;;;;;0.8;0.8;;;;;;;8.46;81.18652;951.8102;;;;
2024/02/02 11:42:14;;;;;;;0.8;0.8;;;;;;;8.45;83.11621;951.778;;;;
2024/02/02 11:44:38;;;;;;;0.8;0.8;;;;;;;8.41;83.17578;951.6063;;;;
2024/02/02 11:47:03;;;;;;;0.9;0.9;;;;;;;8.36;83.63477;951.7117;;;;
2024/02/02 11:49:29;;;;;;;1.3;1.2;;;;;;;8.53;85.41699;951.6653;;;;
2024/02/02 11:51:54;;;;;;;1;0.9;;;;;;;8.5;86.14941;951.7224;;;;
2024/02/02 11:54:19;;;;;;;1.3;1.2;;;;;;;8.45;84.89063;951.7109;;;;
2024/02/02 11:56:44;;;;;;;3.2;2.8;;;;;;;8.3;87.2002;951.8995;;;;
2024/02/02 11:59:09;;;;;;;2.7;2.1;;;;;;;8.39;88.50293;951.9144;;;;
2024/02/02 12:01:34;;;;;;;1.3;1.1;;;;;;;8.35;85.07422;951.9803;;;;
2024/02/02 12:03:59;;;;;;;2;1.7;;;;;;;8.27;80.99219;951.8434;;;;
2024/02/02 12:06:26;;;;;;;1.4;1.3;;;;;;;8.28;81.06348;951.8622;;;;
2024/02/02 12:08:49;;;;;;;1.7;1.1;;;;;;;8.2;82.69434;951.8738;;;;
2024/02/02 12:11:15;;;;;;;1.3;0.9;;;;;;;8.21;83.81934;951.8344;;;;
2024/02/02 12:13:39;;;;;;;0.6;0.6;;;;;;;8.15;84.41016;951.7385;;;;
2024/02/02 12:16:06;;;;;;;1.2;1.1;;;;;;;8.09;85.66895;951.6066;;;;
2024/02/02 12:18:30;;;;;;;1.3;0.9;;;;;;;7.98;88.04492;951.5703;;;;
2024/02/02 12:20:55;;;;;;;2.7;1.1;;;;;;;8;88.51367;951.541;;;;
2024/02/02 12:23:20;;;;;;;1.4;1.2;;;;;;;7.98;89.06641;951.4814;;;;
2024/02/02 12:25:45;;;;;;;1.2;1.1;;;;;;;7.88;87.92188;951.4221;;;;
2024/02/02 12:28:10;;;;;;;2.9;1.9;;;;;;;7.9;87.54004;951.4244;;;;
2024/02/02 12:30:36;;;;;;;1.9;1.3;;;;;;;7.87;88.29297;951.3937;;;;
2024/02/02 12:33:01;;;;;;;1.3;1.2;;;;;;;7.88;88.44238;951.3171;;;;
2024/02/02 12:35:26;;;;;;;1.5;1.2;;;;;;;7.89;88.37598;951.343;;;;
2024/02/02 12:37:51;;;;;;;1.4;1.3;;;;;;;7.92;87.58691;951.3909;;;;
2024/02/02 12:40:16;;;;;;;1.7;1.3;;;;;;;7.92;86.73633;951.2766;;;;
2024/02/02 12:42:41;;;;;;;15.8;8.2;;;;;;;7.9;87.18848;951.3181;;;;
2024/02/02 12:45:06;;;;;;;34.9;18.5;;;;;;;7.96;87.7666;951.2133;;;;
2024/02/02 12:47:32;;;;;;;62.3;31.1;;;;;;;7.89;88.17188;951.2817;;;;
2024/02/02 12:49:57;;;;;;;10.2;5.6;;;;;;;7.84;86.61914;951.2665;;;;
2024/02/02 12:52:22;;;;;;;61.8;29.5;;;;;;;7.94;86.7959;951.272;;;;
2024/02/02 12:54:47;;;;;;;23.1;11.9;;;;;;;7.95;86.36914;951.2439;;;;
2024/02/02 12:57:12;;;;;;;24;11.5;;;;;;;7.89;86.77637;951.2294;;;;
2024/02/02 12:59:37;;;;;;;15.5;8.4;;;;;;;7.89;87.36816;951.1956;;;;
2024/02/02 13:02:02;;;;;;;12.3;6.3;;;;;;;7.93;87.93164;951.1671;;;;
2024/02/02 13:04:27;;;;;;;7.7;4.5;;;;;;;7.94;88.37402;951.2854;;;;
2024/02/02 13:06:53;;;;;;;12.6;7.7;;;;;;;7.9;88.6748;951.2817;;;;
2024/02/02 13:09:18;;;;;;;59.8;29.3;;;;;;;7.9;89.13965;951.1373;;;;
2024/02/02 13:11:43;;;;;;;101.3;52.2;;;;;;;7.93;89.04395;951.1465;;;;
2024/02/02 13:14:08;;;;;;;87.5;48.9;;;;;;;7.98;90.20117;951.0341;;;;
2024/02/02 13:16:34;;;;;;;30.3;17.7;;;;;;;7.99;90.64355;951.0406;;;;
2024/02/02 13:19:04;;;;;;;14.2;8.4;;;;;;;7.98;90.62109;951.0889;;;;
2024/02/02 13:21:26;;;;;;;5.5;3.7;;;;;;;8;90.40723;951.0934;;;;
2024/02/02 13:23:48;;;;;;;4.9;3.2;;;;;;;8.02;88.32227;951.1113;;;;
2024/02/02 13:26:13;;;;;;;5.7;3.7;;;;;;;7.99;89.13379;951.0311;;;;
2024/02/02 13:28:42;;;;;;;2.2;1.7;;;;;;;8.14;86.98633;951.0865;;;;
2024/02/02 13:31:05;;;;;;;2.6;1.9;;;;;;;8.01;86.0957;951.043;;;;
2024/02/02 13:35:46;;;;;;;2.2;1.5;;;;;;;8.09;85.23926;950.9889;;;;
2024/02/02 13:38:11;;;;;;;2.1;1.7;;;;;;;8.14;85.79395;951.0095;;;;
2024/02/02 13:40:35;;;;;;;1.7;1.6;;;;;;;8.13;83.3623;951.0687;;;;
2024/02/02 13:43:01;;;;;;;1.9;1.6;;;;;;;8.06;84.30176;951.0027;;;;
2024/02/02 13:45:28;;;;;;;2.2;1.6;;;;;;;8.03;84.58008;951.0165;;;;
2024/02/02 13:47:52;;;;;;;2.8;1.6;;;;;;;8.06;84.16504;951.0195;;;;
2024/02/02 13:50:19;;;;;;;2;1.5;;;;;;;8.07;84.71191;950.9222;;;;
2024/02/02 13:52:41;;;;;;;3;1.6;;;;;;;8.12;83.19922;950.9383;;;;
2024/02/02 13:55:07;;;;;;;1.7;1.5;;;;;;;8.1;83.27734;950.9288;;;;
2024/02/02 13:57:38;;;;;;;1.6;1.5;;;;;;;8.08;83.73926;950.9155;;;;
2024/02/02 13:59:56;;;;;;;4.6;2.3;;;;;;;8.1;82.92383;950.8661;;;;
2024/02/02 14:02:24;;;;;;;4.6;2.4;;;;;;;8.1;82.69824;950.8234;;;;
2024/02/02 14:04:47;;;;;;;3;1.6;;;;;;;8.16;83.46973;950.9033;;;;
2024/02/02 14:07:12;;;;;;;1.3;1.2;;;;;;;8.18;82.25781;950.8192;;;;
2024/02/02 14:09:37;;;;;;;2.3;1.6;;;;;;;8.18;83.40527;950.847;;;;
2024/02/02 14:12:02;;;;;;;4.3;2.9;;;;;;;8.18;84.41602;950.7772;;;;
2024/02/02 14:14:28;;;;;;;4.3;3.4;;;;;;;8.22;85.58105;950.8147;;;;
2024/02/02 14:16:52;;;;;;;2.8;2.4;;;;;;;8.1;86.66113;950.7527;;;;
2024/02/02 14:19:17;;;;;;;1.7;1.6;;;;;;;7.97;84.96484;950.9;;;;
2024/02/02 14:21:42;;;;;;;2;1.7;;;;;;;7.98;84.51465;950.7321;;;;
2024/02/02 14:24:07;;;;;;;2.9;2.3;;;;;;;8.03;84.5332;950.7792;;;;
2024/02/02 14:26:32;;;;;;;2.4;2.2;;;;;;;8.06;84.54004;950.7781;;;;
2024/02/02 14:28:57;;;;;;;2.5;2.1;;;;;;;8.04;84.52344;950.7367;;;;
2024/02/02 14:31:23;;;;;;;4.6;3.4;;;;;;;8.01;86.00684;950.6786;;;;
2024/02/02 14:33:47;;;;;;;4.8;3.6;;;;;;;8.04;86.08008;950.7172;;;;
2024/02/02 14:36:14;;;;;;;10.1;7.5;;;;;;;8.03;85.74902;950.7039;;;;
2024/02/02 14:38:38;;;;;;;7.4;5.8;;;;;;;8.03;86.14648;950.7214;;;;
2024/02/02 14:41:03;;;;;;;5.3;4;;;;;;;8.07;86.46094;950.7372;;;;
2024/02/02 14:43:28;;;;;;;4.9;3.7;;;;;;;7.99;87.9873;950.6738;;;;
2024/02/02 14:45:53;;;;;;;5.2;3.5;;;;;;;7.93;88.27148;950.7427;;;;
2024/02/02 14:48:18;;;;;;;7.3;5.9;;;;;;;7.98;88.98438;950.6271;;;;
2024/02/02 14:50:43;;;;;;;5.7;4.2;;;;;;;7.94;89.17969;950.6747;;;;
2024/02/02 14:53:09;;;;;;;4.4;3.3;;;;;;;7.9;89.87598;950.7461;;;;
2024/02/02 14:55:34;;;;;;;3.1;2.2;;;;;;;7.87;90.39355;950.6889;;;;
2024/02/02 14:58:00;;;;;;;3;2.1;;;;;;;7.87;90.30273;950.6254;;;;
2024/02/02 15:00:30;;;;;;;2.7;2.3;;;;;;;7.83;90.89551;950.6603;;;;
2024/02/02 15:02:50;;;;;;;3;1.8;;;;;;;7.81;90.84375;950.7205;;;;
2024/02/02 15:05:15;;;;;;;2.9;2.1;;;;;;;7.84;90.19141;950.6161;;;;
2024/02/02 15:07:40;;;;;;;5.6;3.6;;;;;;;7.85;90.01367;950.6625;;;;
2024/02/02 15:10:05;;;;;;;4.7;3.4;;;;;;;7.9;89.96875;950.6124;;;;
2024/02/02 15:12:30;;;;;;;3.8;2.9;;;;;;;7.86;90.46973;950.6898;;;;
2024/02/02 15:14:55;;;;;;;3.2;2.4;;;;;;;7.84;91.06738;950.7042;;;;
2024/02/02 15:17:20;;;;;;;3.2;2.3;;;;;;;7.78;91.48535;950.6129;;;;
2024/02/02 15:19:45;;;;;;;2.5;1.7;;;;;;;7.73;92.04004;950.5797;;;;
2024/02/02 15:22:10;;;;;;;2.3;1.7;;;;;;;7.7;92.45605;950.5653;;;;
2024/02/02 15:24:35;;;;;;;2.2;1.7;;;;;;;7.69;92.00781;950.6383;;;;
2024/02/02 15:27:07;;;;;;;2.2;1.9;;;;;;;7.66;91.41211;950.6649;;;;
2024/02/02 15:29:32;;;;;;;1.6;1.4;;;;;;;7.72;89.32715;950.6918;;;;
2024/02/02 15:31:57;;;;;;;2.1;1.8;;;;;;;7.74;88.19727;950.6672;;;;
2024/02/02 15:34:23;;;;;;;3.7;2.8;;;;;;;7.7;88.92676;950.7148;;;;
2024/02/02 15:36:47;;;;;;;7;4.2;;;;;;;7.69;89.34277;950.7175;;;;
2024/02/02 15:39:13;;;;;;;5.4;3.7;;;;;;;7.78;88.61426;950.7491;;;;
2024/02/02 15:41:37;;;;;;;4.9;3.3;;;;;;;7.78;89.5791;950.6483;;;;
2024/02/02 15:44:02;;;;;;;5.1;3.2;;;;;;;7.74;90.00098;950.7244;;;;
2024/02/02 15:46:27;;;;;;;3.4;2.8;;;;;;;7.71;90.49609;950.6465;;;;
2024/02/02 15:48:53;;;;;;;2.8;2.2;;;;;;;7.69;90.64746;950.6272;;;;
2024/02/02 15:51:18;;;;;;;2.9;1.8;;;;;;;7.7;90.42578;950.6113;;;;
2024/02/02 15:53:43;;;;;;;2.2;1.8;;;;;;;7.69;90.55859;950.6591;;;;